sensor_id;sensor_type;location;lat;lon;timestamp;pressure;altitude;pressure_sealevel;temperature;humidity
40940;BME280;26666;50.156;7.700;2023-03-26T00:01:44;99801.63;;;8.05;100.00
40940;BME280;26666;50.156;7.700;2023-03-26T00:06:47;99804.25;;;8.05;100.00
40940;BME280;26666;50.156;7.700;2023-03-26T00:11:48;99814.00;;;7.93;100.00
40940;BME280;26666;50.156;7.700;2023-03-26T00:16:50;99812.13;;;7.84;100.00
40940;BME280;26666;50.156;7.700;2023-03-26T00:21:53;99815.97;;;7.80;100.00
40940;BME280;26666;50.156;7.700;2023-03-26T00:26:55;99803.81;;;7.79;100.00
40940;BME280;26666;50.156;7.700;2023-03-26T00:31:56;99809.69;;;7.71;100.00
40940;BME280;26666;50.156;7.700;2023-03-26T00:36:59;99808.28;;;7.67;100.00
40940;BME280;26666;50.156;7.700;2023-03-26T00:42:01;99802.16;;;7.66;100.00
40940;BME280;26666;50.156;7.700;2023-03-26T00:47:03;99805.50;;;7.68;100.00
40940;BME280;26666;50.156;7.700;2023-03-26T00:52:06;99795.38;;;7.64;100.00
40940;BME280;26666;50.156;7.700;2023-03-26T00:57:08;99796.06;;;7.66;100.00
40940;BME280;26666;50.156;7.700;2023-03-26T01:02:11;99787.66;;;7.51;100.00
40940;BME280;26666;50.156;7.700;2023-03-26T01:07:17;99788.94;;;7.57;100.00
40940;BME280;26666;50.156;7.700;2023-03-26T01:12:20;99780.84;;;7.48;100.00
40940;BME280;26666;50.156;7.700;2023-03-26T01:17:23;99776.06;;;7.54;100.00
40940;BME280;26666;50.156;7.700;2023-03-26T01:22:26;99767.97;;;7.45;100.00
40940;BME280;26666;50.156;7.700;2023-03-26T01:27:34;99764.38;;;7.46;100.00
40940;BME280;26666;50.156;7.700;2023-03-26T01:32:47;99753.41;;;7.41;100.00
40940;BME280;26666;50.156;7.700;2023-03-26T01:38:01;99746.59;;;7.39;100.00
40940;BME280;26666;50.156;7.700;2023-03-26T01:43:14;99749.34;;;7.37;100.00
40940;BME280;26666;50.156;7.700;2023-03-26T01:48:18;99744.06;;;7.16;100.00
40940;BME280;26666;50.156;7.700;2023-03-26T01:53:20;99728.59;;;7.34;100.00
40940;BME280;26666;50.156;7.700;2023-03-26T01:58:29;99725.44;;;7.40;100.00
40940;BME280;26666;50.156;7.700;2023-03-26T02:03:38;99716.50;;;7.31;100.00
40940;BME280;26666;50.156;7.700;2023-03-26T02:08:47;99702.50;;;7.42;100.00
40940;BME280;26666;50.156;7.700;2023-03-26T02:13:53;99682.81;;;7.58;100.00
40940;BME280;26666;50.156;7.700;2023-03-26T02:18:55;99686.97;;;7.60;100.00
40940;BME280;26666;50.156;7.700;2023-03-26T02:23:57;99686.97;;;7.60;100.00
40940;BME280;26666;50.156;7.700;2023-03-26T02:29:00;99677.09;;;7.74;100.00
40940;BME280;26666;50.156;7.700;2023-03-26T02:34:02;99672.72;;;7.53;100.00
40940;BME280;26666;50.156;7.700;2023-03-26T02:39:04;99662.75;;;7.57;100.00
40940;BME280;26666;50.156;7.700;2023-03-26T02:44:07;99658.41;;;7.67;100.00
40940;BME280;26666;50.156;7.700;2023-03-26T02:49:08;99660.47;;;7.94;100.00
40940;BME280;26666;50.156;7.700;2023-03-26T02:54:10;99649.72;;;7.76;100.00
40940;BME280;26666;50.156;7.700;2023-03-26T02:59:13;99641.44;;;7.81;100.00
40940;BME280;26666;50.156;7.700;2023-03-26T03:04:15;99632.16;;;7.77;100.00
40940;BME280;26666;50.156;7.700;2023-03-26T03:09:16;99626.25;;;7.63;100.00
40940;BME280;26666;50.156;7.700;2023-03-26T03:14:20;99613.50;;;7.59;100.00
40940;BME280;26666;50.156;7.700;2023-03-26T03:19:21;99606.31;;;7.92;100.00
40940;BME280;26666;50.156;7.700;2023-03-26T03:24:23;99593.66;;;7.76;100.00
40940;BME280;26666;50.156;7.700;2023-03-26T03:29:26;99590.78;;;7.79;100.00
40940;BME280;26666;50.156;7.700;2023-03-26T03:34:28;99589.75;;;7.70;100.00
40940;BME280;26666;50.156;7.700;2023-03-26T03:39:29;99578.06;;;7.53;100.00
40940;BME280;26666;50.156;7.700;2023-03-26T03:44:32;99574.50;;;7.64;100.00
40940;BME280;26666;50.156;7.700;2023-03-26T03:49:34;99562.72;;;7.58;100.00
40940;BME280;26666;50.156;7.700;2023-03-26T03:54:36;99555.19;;;7.75;100.00
40940;BME280;26666;50.156;7.700;2023-03-26T03:59:39;99548.34;;;7.62;100.00
40940;BME280;26666;50.156;7.700;2023-03-26T04:04:48;99539.13;;;7.78;100.00
40940;BME280;26666;50.156;7.700;2023-03-26T04:09:50;99519.19;;;7.75;100.00
40940;BME280;26666;50.156;7.700;2023-03-26T04:14:53;99513.81;;;7.77;100.00
40940;BME280;26666;50.156;7.700;2023-03-26T04:19:55;99501.00;;;8.03;100.00
40940;BME280;26666;50.156;7.700;2023-03-26T04:24:56;99493.66;;;8.16;100.00
40940;BME280;26666;50.156;7.700;2023-03-26T04:30:00;99486.00;;;7.94;100.00
40940;BME280;26666;50.156;7.700;2023-03-26T04:35:02;99479.28;;;8.20;100.00
40940;BME280;26666;50.156;7.700;2023-03-26T04:40:07;99473.44;;;8.36;100.00
40940;BME280;26666;50.156;7.700;2023-03-26T04:45:11;99453.78;;;8.21;100.00
40940;BME280;26666;50.156;7.700;2023-03-26T04:50:13;99422.47;;;7.98;100.00
40940;BME280;26666;50.156;7.700;2023-03-26T04:55:20;99424.13;;;8.38;100.00
40940;BME280;26666;50.156;7.700;2023-03-26T05:00:25;99413.34;;;8.22;100.00
40940;BME280;26666;50.156;7.700;2023-03-26T05:05:28;99406.72;;;8.08;100.00
40940;BME280;26666;50.156;7.700;2023-03-26T05:10:29;99391.75;;;8.08;100.00
40940;BME280;26666;50.156;7.700;2023-03-26T05:15:32;99384.09;;;8.25;100.00
40940;BME280;26666;50.156;7.700;2023-03-26T05:20:34;99386.47;;;8.38;100.00
40940;BME280;26666;50.156;7.700;2023-03-26T05:25:36;99372.06;;;8.42;100.00
40940;BME280;26666;50.156;7.700;2023-03-26T05:30:39;99354.31;;;8.34;100.00
40940;BME280;26666;50.156;7.700;2023-03-26T05:35:40;99347.97;;;8.46;100.00
40940;BME280;26666;50.156;7.700;2023-03-26T05:40:42;99341.84;;;8.36;100.00
40940;BME280;26666;50.156;7.700;2023-03-26T05:45:47;99349.88;;;8.25;100.00
40940;BME280;26666;50.156;7.700;2023-03-26T05:50:49;99347.44;;;8.23;100.00
40940;BME280;26666;50.156;7.700;2023-03-26T05:55:52;99344.09;;;8.21;100.00
40940;BME280;26666;50.156;7.700;2023-03-26T06:01:00;99336.09;;;7.84;100.00
40940;BME280;26666;50.156;7.700;2023-03-26T06:06:02;99329.97;;;8.13;100.00
40940;BME280;26666;50.156;7.700;2023-03-26T06:11:06;99324.41;;;8.35;100.00
40940;BME280;26666;50.156;7.700;2023-03-26T06:16:11;99318.59;;;8.32;100.00
40940;BME280;26666;50.156;7.700;2023-03-26T06:21:28;99315.41;;;8.28;100.00
40940;BME280;26666;50.156;7.700;2023-03-26T06:26:30;99308.03;;;8.51;100.00
40940;BME280;26666;50.156;7.700;2023-03-26T06:31:33;99307.22;;;8.51;100.00
40940;BME280;26666;50.156;7.700;2023-03-26T06:36:35;99300.41;;;8.38;100.00
40940;BME280;26666;50.156;7.700;2023-03-26T06:41:37;99290.47;;;8.42;100.00
40940;BME280;26666;50.156;7.700;2023-03-26T06:46:40;99290.56;;;8.40;100.00
40940;BME280;26666;50.156;7.700;2023-03-26T06:51:42;99277.06;;;8.25;100.00
40940;BME280;26666;50.156;7.700;2023-03-26T06:56:43;99269.03;;;8.27;100.00
40940;BME280;26666;50.156;7.700;2023-03-26T07:01:46;99255.56;;;8.30;100.00
40940;BME280;26666;50.156;7.700;2023-03-26T07:06:48;99242.94;;;8.43;100.00
40940;BME280;26666;50.156;7.700;2023-03-26T07:11:49;99241.41;;;8.51;100.00
40940;BME280;26666;50.156;7.700;2023-03-26T07:16:52;99236.72;;;8.44;100.00
40940;BME280;26666;50.156;7.700;2023-03-26T07:21:55;99237.41;;;8.37;100.00
40940;BME280;26666;50.156;7.700;2023-03-26T07:27:02;99221.75;;;8.45;100.00
40940;BME280;26666;50.156;7.700;2023-03-26T07:32:15;99231.84;;;8.40;100.00
40940;BME280;26666;50.156;7.700;2023-03-26T07:37:41;99215.81;;;8.33;100.00
40940;BME280;26666;50.156;7.700;2023-03-26T07:42:53;99204.97;;;8.46;100.00
40940;BME280;26666;50.156;7.700;2023-03-26T07:47:59;99192.94;;;8.43;100.00
40940;BME280;26666;50.156;7.700;2023-03-26T07:53:01;99189.13;;;8.56;100.00
40940;BME280;26666;50.156;7.700;2023-03-26T07:58:10;99179.84;;;8.52;100.00
40940;BME280;26666;50.156;7.700;2023-03-26T08:03:42;99178.69;;;8.64;100.00
40940;BME280;26666;50.156;7.700;2023-03-26T08:08:56;99172.44;;;8.65;100.00
40940;BME280;26666;50.156;7.700;2023-03-26T08:14:13;99166.22;;;8.66;100.00
40940;BME280;26666;50.156;7.700;2023-03-26T08:19:37;99165.22;;;8.67;100.00
40940;BME280;26666;50.156;7.700;2023-03-26T08:24:50;99153.19;;;8.64;100.00
40940;BME280;26666;50.156;7.700;2023-03-26T08:30:00;99145.09;;;8.48;100.00
40940;BME280;26666;50.156;7.700;2023-03-26T08:35:06;99142.81;;;8.63;100.00
40940;BME280;26666;50.156;7.700;2023-03-26T08:40:08;99144.84;;;8.69;100.00
40940;BME280;26666;50.156;7.700;2023-03-26T08:45:32;99146.72;;;8.77;100.00
40940;BME280;26666;50.156;7.700;2023-03-26T08:56:10;99136.94;;;8.87;100.00
40940;BME280;26666;50.156;7.700;2023-03-26T09:07:05;99115.94;;;9.57;100.00
40940;BME280;26666;50.156;7.700;2023-03-26T09:12:33;99108.13;;;9.47;100.00
40940;BME280;26666;50.156;7.700;2023-03-26T09:18:06;99102.97;;;9.64;100.00
40940;BME280;26666;50.156;7.700;2023-03-26T09:23:37;99093.16;;;10.17;100.00
40940;BME280;26666;50.156;7.700;2023-03-26T09:35:09;99080.41;;;9.70;100.00
40940;BME280;26666;50.156;7.700;2023-03-26T09:40:17;99080.03;;;10.33;100.00
40940;BME280;26666;50.156;7.700;2023-03-26T09:45:43;99071.13;;;10.34;100.00
40940;BME280;26666;50.156;7.700;2023-03-26T09:51:07;99056.03;;;9.76;100.00
40940;BME280;26666;50.156;7.700;2023-03-26T09:56:24;99046.84;;;10.31;100.00
40940;BME280;26666;50.156;7.700;2023-03-26T10:01:36;99033.03;;;11.19;100.00
40940;BME280;26666;50.156;7.700;2023-03-26T10:06:49;99060.25;;;11.52;100.00
40940;BME280;26666;50.156;7.700;2023-03-26T10:12:07;99049.88;;;10.10;100.00
40940;BME280;26666;50.156;7.700;2023-03-26T10:17:26;99074.22;;;10.30;100.00
40940;BME280;26666;50.156;7.700;2023-03-26T10:22:42;99082.06;;;10.13;100.00
40940;BME280;26666;50.156;7.700;2023-03-26T10:27:57;99064.22;;;9.64;100.00
40940;BME280;26666;50.156;7.700;2023-03-26T10:33:10;99059.66;;;10.17;100.00
40940;BME280;26666;50.156;7.700;2023-03-26T10:38:17;99045.84;;;10.23;100.00
40940;BME280;26666;50.156;7.700;2023-03-26T10:43:58;99036.69;;;10.69;100.00
40940;BME280;26666;50.156;7.700;2023-03-26T10:49:31;99014.19;;;10.40;100.00
40940;BME280;26666;50.156;7.700;2023-03-26T10:54:45;99007.44;;;10.45;100.00
40940;BME280;26666;50.156;7.700;2023-03-26T10:59:50;98996.41;;;10.67;100.00
40940;BME280;26666;50.156;7.700;2023-03-26T11:05:05;99007.09;;;10.40;100.00
40940;BME280;26666;50.156;7.700;2023-03-26T11:10:24;98997.88;;;10.85;100.00
40940;BME280;26666;50.156;7.700;2023-03-26T11:15:35;98983.63;;;11.19;100.00
40940;BME280;26666;50.156;7.700;2023-03-26T11:20:41;98984.22;;;11.38;100.00
40940;BME280;26666;50.156;7.700;2023-03-26T11:25:55;98982.41;;;11.47;100.00
40940;BME280;26666;50.156;7.700;2023-03-26T11:31:07;98980.75;;;11.85;100.00
40940;BME280;26666;50.156;7.700;2023-03-26T11:36:16;98979.19;;;11.59;100.00
40940;BME280;26666;50.156;7.700;2023-03-26T11:41:22;98978.84;;;11.62;100.00
40940;BME280;26666;50.156;7.700;2023-03-26T11:46:26;98974.69;;;12.08;100.00
40940;BME280;26666;50.156;7.700;2023-03-26T11:51:30;98974.63;;;11.93;100.00
40940;BME280;26666;50.156;7.700;2023-03-26T11:56:36;98970.22;;;11.69;100.00
40940;BME280;26666;50.156;7.700;2023-03-26T12:02:17;98977.50;;;11.67;100.00
40940;BME280;26666;50.156;7.700;2023-03-26T12:07:29;98971.19;;;11.76;100.00
40940;BME280;26666;50.156;7.700;2023-03-26T12:12:33;98965.53;;;11.79;100.00
40940;BME280;26666;50.156;7.700;2023-03-26T12:17:39;98966.47;;;12.02;100.00
40940;BME280;26666;50.156;7.700;2023-03-26T12:22:41;98959.72;;;11.92;94.82
40940;BME280;26666;50.156;7.700;2023-03-26T12:27:47;98948.16;;;11.84;98.09
40940;BME280;26666;50.156;7.700;2023-03-26T12:32:51;98933.09;;;11.93;95.58
40940;BME280;26666;50.156;7.700;2023-03-26T12:38:12;98942.53;;;12.19;91.58
40940;BME280;26666;50.156;7.700;2023-03-26T12:43:24;98941.56;;;12.12;90.50
40940;BME280;26666;50.156;7.700;2023-03-26T12:48:51;98936.09;;;12.13;91.43
40940;BME280;26666;50.156;7.700;2023-03-26T12:54:02;98933.38;;;12.45;96.88
40940;BME280;26666;50.156;7.700;2023-03-26T12:59:23;98914.41;;;12.56;96.84
40940;BME280;26666;50.156;7.700;2023-03-26T13:04:52;98915.50;;;12.47;96.76
40940;BME280;26666;50.156;7.700;2023-03-26T13:10:34;98897.53;;;12.72;88.61
40940;BME280;26666;50.156;7.700;2023-03-26T13:15:42;98912.97;;;12.68;89.42
40940;BME280;26666;50.156;7.700;2023-03-26T13:20:54;98903.81;;;12.56;86.29
40940;BME280;26666;50.156;7.700;2023-03-26T13:26:07;98893.69;;;12.59;88.38
40940;BME280;26666;50.156;7.700;2023-03-26T13:31:17;98895.91;;;12.86;82.51
40940;BME280;26666;50.156;7.700;2023-03-26T13:36:29;98914.91;;;12.74;81.27
40940;BME280;26666;50.156;7.700;2023-03-26T13:41:47;98901.09;;;12.49;80.55
40940;BME280;26666;50.156;7.700;2023-03-26T13:46:54;98889.13;;;12.68;81.20
40940;BME280;26666;50.156;7.700;2023-03-26T13:52:03;98875.91;;;12.83;80.86
40940;BME280;26666;50.156;7.700;2023-03-26T13:57:10;98875.06;;;12.97;79.08
40940;BME280;26666;50.156;7.700;2023-03-26T14:02:18;98877.09;;;13.25;79.82
40940;BME280;26666;50.156;7.700;2023-03-26T14:07:29;98861.34;;;13.38;78.14
40940;BME280;26666;50.156;7.700;2023-03-26T14:12:40;98867.94;;;13.13;77.67
40940;BME280;26666;50.156;7.700;2023-03-26T14:17:47;98861.81;;;13.12;78.44
40940;BME280;26666;50.156;7.700;2023-03-26T14:23:00;98868.50;;;12.93;80.45
40940;BME280;26666;50.156;7.700;2023-03-26T14:28:18;98870.44;;;12.85;76.27
40940;BME280;26666;50.156;7.700;2023-03-26T14:39:32;98966.66;;;12.24;85.64
40940;BME280;26666;50.156;7.700;2023-03-26T14:44:54;99000.16;;;10.97;100.00
40940;BME280;26666;50.156;7.700;2023-03-26T14:50:21;98985.31;;;10.30;100.00
40940;BME280;26666;50.156;7.700;2023-03-26T14:55:46;98977.84;;;9.66;100.00
40940;BME280;26666;50.156;7.700;2023-03-26T15:01:24;98977.75;;;9.42;100.00
40940;BME280;26666;50.156;7.700;2023-03-26T15:07:22;98999.94;;;9.65;100.00
40940;BME280;26666;50.156;7.700;2023-03-26T15:12:39;98979.72;;;9.40;100.00
40940;BME280;26666;50.156;7.700;2023-03-26T15:18:18;98994.53;;;9.67;100.00
40940;BME280;26666;50.156;7.700;2023-03-26T15:35:16;98982.13;;;10.26;100.00
40940;BME280;26666;50.156;7.700;2023-03-26T15:45:48;98991.91;;;10.42;100.00
40940;BME280;26666;50.156;7.700;2023-03-26T15:50:52;98985.50;;;10.45;100.00
40940;BME280;26666;50.156;7.700;2023-03-26T15:55:58;98989.63;;;10.48;100.00
40940;BME280;26666;50.156;7.700;2023-03-26T16:01:13;98997.22;;;10.51;100.00
40940;BME280;26666;50.156;7.700;2023-03-26T16:06:27;98988.97;;;10.54;100.00
40940;BME280;26666;50.156;7.700;2023-03-26T16:11:44;98985.84;;;10.67;100.00
40940;BME280;26666;50.156;7.700;2023-03-26T16:16:55;98980.22;;;10.70;100.00
40940;BME280;26666;50.156;7.700;2023-03-26T16:22:00;98988.63;;;10.65;100.00
40940;BME280;26666;50.156;7.700;2023-03-26T16:27:24;98983.50;;;10.63;100.00
40940;BME280;26666;50.156;7.700;2023-03-26T16:32:31;98984.03;;;10.51;100.00
40940;BME280;26666;50.156;7.700;2023-03-26T16:37:37;99000.03;;;10.57;100.00
40940;BME280;26666;50.156;7.700;2023-03-26T16:42:40;99005.63;;;10.38;100.00
40940;BME280;26666;50.156;7.700;2023-03-26T16:47:57;99020.25;;;10.24;100.00
40940;BME280;26666;50.156;7.700;2023-03-26T16:53:13;99028.38;;;9.88;100.00
40940;BME280;26666;50.156;7.700;2023-03-26T16:58:28;99051.19;;;10.05;100.00
40940;BME280;26666;50.156;7.700;2023-03-26T17:03:43;99054.88;;;9.78;100.00
40940;BME280;26666;50.156;7.700;2023-03-26T17:08:59;99057.44;;;9.62;100.00
40940;BME280;26666;50.156;7.700;2023-03-26T17:14:11;99066.34;;;9.35;100.00
40940;BME280;26666;50.156;7.700;2023-03-26T17:19:26;99078.19;;;9.31;100.00
40940;BME280;26666;50.156;7.700;2023-03-26T17:24:38;99078.03;;;9.32;100.00
40940;BME280;26666;50.156;7.700;2023-03-26T17:30:00;99091.13;;;9.42;100.00
40940;BME280;26666;50.156;7.700;2023-03-26T17:35:06;99089.16;;;9.44;100.00
40940;BME280;26666;50.156;7.700;2023-03-26T17:40:43;99092.75;;;9.43;100.00
40940;BME280;26666;50.156;7.700;2023-03-26T17:45:45;99096.41;;;9.24;100.00
40940;BME280;26666;50.156;7.700;2023-03-26T17:51:19;99099.66;;;9.18;100.00
40940;BME280;26666;50.156;7.700;2023-03-26T17:56:26;99109.00;;;9.12;100.00
40940;BME280;26666;50.156;7.700;2023-03-26T18:01:33;99112.56;;;9.21;100.00
40940;BME280;26666;50.156;7.700;2023-03-26T18:06:55;99120.91;;;9.16;100.00
40940;BME280;26666;50.156;7.700;2023-03-26T18:12:29;99127.47;;;8.94;100.00
40940;BME280;26666;50.156;7.700;2023-03-26T18:17:42;99125.72;;;9.21;100.00
40940;BME280;26666;50.156;7.700;2023-03-26T18:22:47;99132.28;;;8.99;100.00
40940;BME280;26666;50.156;7.700;2023-03-26T18:27:50;99131.53;;;9.06;100.00
40940;BME280;26666;50.156;7.700;2023-03-26T18:32:56;99149.81;;;9.08;100.00
40940;BME280;26666;50.156;7.700;2023-03-26T18:38:02;99156.63;;;9.11;100.00
40940;BME280;26666;50.156;7.700;2023-03-26T18:43:04;99160.22;;;9.10;100.00
40940;BME280;26666;50.156;7.700;2023-03-26T18:48:09;99162.25;;;9.16;100.00
40940;BME280;26666;50.156;7.700;2023-03-26T18:53:17;99170.59;;;9.11;100.00
40940;BME280;26666;50.156;7.700;2023-03-26T18:58:22;99184.22;;;9.06;100.00
40940;BME280;26666;50.156;7.700;2023-03-26T19:03:25;99180.09;;;9.04;100.00
40940;BME280;26666;50.156;7.700;2023-03-26T19:08:29;99190.69;;;8.94;100.00
40940;BME280;26666;50.156;7.700;2023-03-26T19:13:31;99201.22;;;8.94;100.00
40940;BME280;26666;50.156;7.700;2023-03-26T19:18:36;99211.16;;;8.82;100.00
40940;BME280;26666;50.156;7.700;2023-03-26T19:23:46;99218.38;;;8.80;100.00
40940;BME280;26666;50.156;7.700;2023-03-26T19:28:49;99238.91;;;8.77;100.00
40940;BME280;26666;50.156;7.700;2023-03-26T19:33:58;99244.75;;;8.71;100.00
40940;BME280;26666;50.156;7.700;2023-03-26T19:39:10;99254.03;;;8.75;100.00
40940;BME280;26666;50.156;7.700;2023-03-26T19:44:18;99264.09;;;8.52;100.00
40940;BME280;26666;50.156;7.700;2023-03-26T19:49:25;99274.50;;;8.53;100.00
40940;BME280;26666;50.156;7.700;2023-03-26T19:54:30;99271.41;;;8.58;100.00
40940;BME280;26666;50.156;7.700;2023-03-26T19:59:32;99295.47;;;8.45;100.00
40940;BME280;26666;50.156;7.700;2023-03-26T20:04:33;99295.41;;;8.55;100.00
40940;BME280;26666;50.156;7.700;2023-03-26T20:09:36;99309.97;;;8.59;100.00
40940;BME280;26666;50.156;7.700;2023-03-26T20:14:38;99320.38;;;8.41;100.00
40940;BME280;26666;50.156;7.700;2023-03-26T20:19:45;99325.13;;;8.27;100.00
40940;BME280;26666;50.156;7.700;2023-03-26T20:24:48;99334.41;;;8.12;100.00
40940;BME280;26666;50.156;7.700;2023-03-26T20:29:50;99346.56;;;8.33;100.00
40940;BME280;26666;50.156;7.700;2023-03-26T20:35:15;99355.03;;;8.17;100.00
40940;BME280;26666;50.156;7.700;2023-03-26T20:41:08;99370.13;;;8.15;100.00
40940;BME280;26666;50.156;7.700;2023-03-26T20:46:44;99379.84;;;8.14;100.00
40940;BME280;26666;50.156;7.700;2023-03-26T20:52:04;99393.94;;;8.33;100.00
40940;BME280;26666;50.156;7.700;2023-03-26T20:57:09;99407.38;;;8.39;100.00
40940;BME280;26666;50.156;7.700;2023-03-26T21:02:10;99413.59;;;8.38;100.00
40940;BME280;26666;50.156;7.700;2023-03-26T21:07:12;99422.06;;;8.32;100.00
40940;BME280;26666;50.156;7.700;2023-03-26T21:12:26;99421.94;;;8.34;100.00
40940;BME280;26666;50.156;7.700;2023-03-26T21:17:30;99437.16;;;8.20;100.00
40940;BME280;26666;50.156;7.700;2023-03-26T21:22:36;99460.03;;;8.20;100.00
40940;BME280;26666;50.156;7.700;2023-03-26T21:27:50;99469.44;;;8.13;100.00
40940;BME280;26666;50.156;7.700;2023-03-26T21:32:55;99479.56;;;8.37;100.00
40940;BME280;26666;50.156;7.700;2023-03-26T21:37:57;99490.91;;;8.18;100.00
40940;BME280;26666;50.156;7.700;2023-03-26T21:43:01;99496.56;;;8.13;100.00
40940;BME280;26666;50.156;7.700;2023-03-26T21:48:03;99505.84;;;7.98;100.00
40940;BME280;26666;50.156;7.700;2023-03-26T21:53:06;99520.78;;;8.07;100.00
40940;BME280;26666;50.156;7.700;2023-03-26T21:58:19;99530.13;;;8.40;100.00
40940;BME280;26666;50.156;7.700;2023-03-26T22:03:24;99540.03;;;7.98;100.00
40940;BME280;26666;50.156;7.700;2023-03-26T22:08:30;99558.22;;;7.80;100.00
40940;BME280;26666;50.156;7.700;2023-03-26T22:13:35;99569.38;;;7.62;100.00
40940;BME280;26666;50.156;7.700;2023-03-26T22:18:37;99585.72;;;7.66;100.00
40940;BME280;26666;50.156;7.700;2023-03-26T22:23:39;99609.72;;;7.73;100.00
40940;BME280;26666;50.156;7.700;2023-03-26T22:28:42;99608.19;;;7.49;100.00
40940;BME280;26666;50.156;7.700;2023-03-26T22:33:43;99633.63;;;7.69;100.00
40940;BME280;26666;50.156;7.700;2023-03-26T22:38:45;99640.47;;;7.51;100.00
40940;BME280;26666;50.156;7.700;2023-03-26T22:43:48;99659.28;;;7.56;100.00
40940;BME280;26666;50.156;7.700;2023-03-26T22:48:50;99672.38;;;7.67;100.00
40940;BME280;26666;50.156;7.700;2023-03-26T22:53:52;99681.59;;;7.62;100.00
40940;BME280;26666;50.156;7.700;2023-03-26T22:58:55;99700.97;;;7.40;100.00
40940;BME280;26666;50.156;7.700;2023-03-26T23:03:57;99709.38;;;7.34;100.00
40940;BME280;26666;50.156;7.700;2023-03-26T23:08:59;99717.25;;;7.34;100.00
40940;BME280;26666;50.156;7.700;2023-03-26T23:14:02;99722.59;;;7.43;100.00
40940;BME280;26666;50.156;7.700;2023-03-26T23:19:03;99741.97;;;7.31;100.00
40940;BME280;26666;50.156;7.700;2023-03-26T23:24:05;99745.94;;;7.25;99.31
40940;BME280;26666;50.156;7.700;2023-03-26T23:29:08;99766.34;;;7.22;100.00
40940;BME280;26666;50.156;7.700;2023-03-26T23:34:10;99769.63;;;7.14;100.00
40940;BME280;26666;50.156;7.700;2023-03-26T23:39:12;99783.47;;;7.16;100.00
40940;BME280;26666;50.156;7.700;2023-03-26T23:44:15;99799.69;;;7.21;100.00
40940;BME280;26666;50.156;7.700;2023-03-26T23:49:17;99808.56;;;7.09;94.14
40940;BME280;26666;50.156;7.700;2023-03-26T23:54:19;99823.41;;;6.99;98.85
40940;BME280;26666;50.156;7.700;2023-03-26T23:59:22;99832.91;;;7.11;97.07
